sensor_id;sensor_type;location;lat;lon;timestamp;pressure;altitude;pressure_sealevel;temperature;humidity
71638;BME280;59485;43.542;-5.676;2023-02-03T00:02:07;103316.28;;;4.96;100.00
71638;BME280;59485;43.542;-5.676;2023-02-03T00:04:36;103314.72;;;4.92;100.00
71638;BME280;59485;43.542;-5.676;2023-02-03T00:09:36;103323.38;;;4.98;100.00
71638;BME280;59485;43.542;-5.676;2023-02-03T00:17:19;103323.53;;;4.65;100.00
71638;BME280;59485;43.542;-5.676;2023-02-03T00:25:37;103326.50;;;4.61;100.00
71638;BME280;59485;43.542;-5.676;2023-02-03T00:28:03;103324.75;;;4.60;100.00
71638;BME280;59485;43.542;-5.676;2023-02-03T00:30:29;103332.66;;;4.64;100.00
71638;BME280;59485;43.542;-5.676;2023-02-03T00:32:55;103322.22;;;4.72;100.00
71638;BME280;59485;43.542;-5.676;2023-02-03T00:35:21;103330.06;;;4.77;100.00
71638;BME280;59485;43.542;-5.676;2023-02-03T00:37:53;103325.69;;;4.74;100.00
71638;BME280;59485;43.542;-5.676;2023-02-03T00:40:19;103327.09;;;4.81;100.00
71638;BME280;59485;43.542;-5.676;2023-02-03T00:42:45;103329.63;;;4.84;100.00
71638;BME280;59485;43.542;-5.676;2023-02-03T00:45:13;103324.00;;;4.87;100.00
71638;BME280;59485;43.542;-5.676;2023-02-03T00:47:39;103332.88;;;4.91;100.00
71638;BME280;59485;43.542;-5.676;2023-02-03T00:50:05;103338.03;;;4.96;100.00
71638;BME280;59485;43.542;-5.676;2023-02-03T00:52:30;103329.88;;;4.96;100.00
71638;BME280;59485;43.542;-5.676;2023-02-03T00:54:56;103331.63;;;4.97;100.00
71638;BME280;59485;43.542;-5.676;2023-02-03T00:57:21;103332.41;;;4.99;100.00
71638;BME280;59485;43.542;-5.676;2023-02-03T01:02:40;103321.03;;;4.92;100.00
71638;BME280;59485;43.542;-5.676;2023-02-03T01:05:05;103317.00;;;4.83;100.00
71638;BME280;59485;43.542;-5.676;2023-02-03T01:07:31;103317.53;;;4.74;100.00
71638;BME280;59485;43.542;-5.676;2023-02-03T01:09:57;103313.34;;;4.69;100.00
71638;BME280;59485;43.542;-5.676;2023-02-03T01:12:22;103312.31;;;4.71;100.00
71638;BME280;59485;43.542;-5.676;2023-02-03T01:14:48;103318.78;;;4.69;100.00
71638;BME280;59485;43.542;-5.676;2023-02-03T01:17:13;103319.75;;;4.68;100.00
71638;BME280;59485;43.542;-5.676;2023-02-03T01:19:38;103321.25;;;4.58;100.00
71638;BME280;59485;43.542;-5.676;2023-02-03T01:22:04;103329.03;;;4.48;100.00
71638;BME280;59485;43.542;-5.676;2023-02-03T01:24:29;103327.41;;;4.45;100.00
71638;BME280;59485;43.542;-5.676;2023-02-03T01:26:55;103329.84;;;4.50;100.00
71638;BME280;59485;43.542;-5.676;2023-02-03T01:29:20;103337.03;;;4.51;100.00
71638;BME280;59485;43.542;-5.676;2023-02-03T01:31:45;103329.84;;;4.50;100.00
71638;BME280;59485;43.542;-5.676;2023-02-03T01:34:12;103330.88;;;4.47;100.00
71638;BME280;59485;43.542;-5.676;2023-02-03T01:36:37;103344.75;;;4.43;100.00
71638;BME280;59485;43.542;-5.676;2023-02-03T01:39:03;103342.97;;;4.42;100.00
71638;BME280;59485;43.542;-5.676;2023-02-03T01:41:34;103339.75;;;4.35;100.00
71638;BME280;59485;43.542;-5.676;2023-02-03T01:44:00;103331.78;;;4.32;100.00
71638;BME280;59485;43.542;-5.676;2023-02-03T01:48:55;103341.75;;;4.16;100.00
71638;BME280;59485;43.542;-5.676;2023-02-03T01:51:24;103336.81;;;4.07;100.00
71638;BME280;59485;43.542;-5.676;2023-02-03T01:53:49;103347.44;;;4.11;100.00
71638;BME280;59485;43.542;-5.676;2023-02-03T01:56:15;103349.00;;;4.00;100.00
71638;BME280;59485;43.542;-5.676;2023-02-03T01:58:41;103355.44;;;3.97;100.00
71638;BME280;59485;43.542;-5.676;2023-02-03T02:01:08;103352.03;;;3.94;100.00
71638;BME280;59485;43.542;-5.676;2023-02-03T02:03:35;103350.19;;;3.94;100.00
71638;BME280;59485;43.542;-5.676;2023-02-03T02:06:06;103356.41;;;3.96;100.00
71638;BME280;59485;43.542;-5.676;2023-02-03T02:08:32;103352.75;;;3.97;100.00
71638;BME280;59485;43.542;-5.676;2023-02-03T02:10:58;103350.09;;;3.96;100.00
71638;BME280;59485;43.542;-5.676;2023-02-03T02:13:24;103353.78;;;3.95;100.00
71638;BME280;59485;43.542;-5.676;2023-02-03T02:26:16;103364.44;;;3.82;100.00
71638;BME280;59485;43.542;-5.676;2023-02-03T02:29:07;103364.06;;;3.72;100.00
71638;BME280;59485;43.542;-5.676;2023-02-03T02:34:04;103367.00;;;3.68;100.00
71638;BME280;59485;43.542;-5.676;2023-02-03T02:39:07;103348.00;;;3.68;100.00
71638;BME280;59485;43.542;-5.676;2023-02-03T02:41:55;103358.25;;;3.63;100.00
71638;BME280;59485;43.542;-5.676;2023-02-03T02:44:29;103357.53;;;3.59;100.00
71638;BME280;59485;43.542;-5.676;2023-02-03T02:47:19;103357.13;;;3.50;100.00
71638;BME280;59485;43.542;-5.676;2023-02-03T02:52:27;103368.22;;;3.45;100.00
71638;BME280;59485;43.542;-5.676;2023-02-03T02:54:55;103374.19;;;3.52;100.00
71638;BME280;59485;43.542;-5.676;2023-02-03T02:57:22;103376.28;;;3.47;100.00
71638;BME280;59485;43.542;-5.676;2023-02-03T02:59:50;103370.78;;;3.48;100.00
71638;BME280;59485;43.542;-5.676;2023-02-03T03:02:15;103369.81;;;3.49;100.00
71638;BME280;59485;43.542;-5.676;2023-02-03T03:04:41;103366.88;;;3.36;100.00
71638;BME280;59485;43.542;-5.676;2023-02-03T03:07:19;103364.66;;;3.45;100.00
71638;BME280;59485;43.542;-5.676;2023-02-03T03:09:59;103357.47;;;3.44;100.00
71638;BME280;59485;43.542;-5.676;2023-02-03T03:12:28;103361.66;;;3.49;100.00
71638;BME280;59485;43.542;-5.676;2023-02-03T03:14:59;103348.13;;;3.49;100.00
71638;BME280;59485;43.542;-5.676;2023-02-03T03:17:32;103353.53;;;3.49;100.00
71638;BME280;59485;43.542;-5.676;2023-02-03T03:19:59;103355.22;;;3.52;100.00
71638;BME280;59485;43.542;-5.676;2023-02-03T03:22:28;103351.31;;;3.57;100.00
71638;BME280;59485;43.542;-5.676;2023-02-03T03:24:59;103344.38;;;3.52;100.00
71638;BME280;59485;43.542;-5.676;2023-02-03T03:27:29;103345.09;;;3.55;100.00
71638;BME280;59485;43.542;-5.676;2023-02-03T03:30:01;103344.38;;;3.52;100.00
71638;BME280;59485;43.542;-5.676;2023-02-03T03:32:29;103339.91;;;3.51;100.00
71638;BME280;59485;43.542;-5.676;2023-02-03T03:34:57;103348.78;;;3.54;100.00
71638;BME280;59485;43.542;-5.676;2023-02-03T03:39:58;103343.28;;;3.38;100.00
71638;BME280;59485;43.542;-5.676;2023-02-03T03:44:56;103344.38;;;3.34;100.00
71638;BME280;59485;43.542;-5.676;2023-02-03T03:47:35;103345.81;;;3.42;100.00
71638;BME280;59485;43.542;-5.676;2023-02-03T03:50:03;103343.28;;;3.38;100.00
71638;BME280;59485;43.542;-5.676;2023-02-03T03:52:31;103346.06;;;3.37;100.00
71638;BME280;59485;43.542;-5.676;2023-02-03T03:54:59;103346.94;;;3.37;100.00
71638;BME280;59485;43.542;-5.676;2023-02-03T03:57:30;103343.28;;;3.38;100.00
71638;BME280;59485;43.542;-5.676;2023-02-03T03:59:57;103347.91;;;3.36;100.00
71638;BME280;59485;43.542;-5.676;2023-02-03T04:02:23;103348.88;;;3.35;100.00
71638;BME280;59485;43.542;-5.676;2023-02-03T04:04:49;103349.00;;;3.32;100.00
71638;BME280;59485;43.542;-5.676;2023-02-03T04:07:17;103357.13;;;3.32;100.00
71638;BME280;59485;43.542;-5.676;2023-02-03T04:09:44;103350.94;;;3.30;100.00
71638;BME280;59485;43.542;-5.676;2023-02-03T04:12:15;103350.16;;;3.28;100.00
71638;BME280;59485;43.542;-5.676;2023-02-03T04:14:43;103345.53;;;3.30;100.00
71638;BME280;59485;43.542;-5.676;2023-02-03T04:17:09;103344.78;;;3.27;100.00
71638;BME280;59485;43.542;-5.676;2023-02-03T04:19:34;103335.72;;;3.28;100.00
71638;BME280;59485;43.542;-5.676;2023-02-03T04:22:00;103342.63;;;3.16;100.00
71638;BME280;59485;43.542;-5.676;2023-02-03T04:24:25;103336.19;;;3.19;100.00
71638;BME280;59485;43.542;-5.676;2023-02-03T04:26:50;103347.91;;;3.19;100.00
71638;BME280;59485;43.542;-5.676;2023-02-03T04:29:16;103354.50;;;3.14;100.00
71638;BME280;59485;43.542;-5.676;2023-02-03T04:31:41;103340.81;;;3.17;100.00
71638;BME280;59485;43.542;-5.676;2023-02-03T04:34:06;103351.91;;;3.12;100.00
71638;BME280;59485;43.542;-5.676;2023-02-03T04:36:32;103339.38;;;3.10;100.00
71638;BME280;59485;43.542;-5.676;2023-02-03T04:38:57;103346.94;;;3.03;100.00
71638;BME280;59485;43.542;-5.676;2023-02-03T04:41:23;103347.09;;;3.00;100.00
71638;BME280;59485;43.542;-5.676;2023-02-03T04:43:48;103356.91;;;3.03;100.00
71638;BME280;59485;43.542;-5.676;2023-02-03T04:46:13;103363.03;;;3.06;100.00
71638;BME280;59485;43.542;-5.676;2023-02-03T04:48:39;103357.94;;;3.00;100.00
71638;BME280;59485;43.542;-5.676;2023-02-03T04:51:05;103367.75;;;3.03;100.00
71638;BME280;59485;43.542;-5.676;2023-02-03T04:53:30;103366.19;;;2.97;100.00
71638;BME280;59485;43.542;-5.676;2023-02-03T04:55:55;103370.91;;;2.93;100.00
71638;BME280;59485;43.542;-5.676;2023-02-03T04:58:21;103371.88;;;2.92;100.00
71638;BME280;59485;43.542;-5.676;2023-02-03T05:00:46;103368.91;;;2.97;100.00
71638;BME280;59485;43.542;-5.676;2023-02-03T05:03:12;103366.13;;;2.98;100.00
71638;BME280;59485;43.542;-5.676;2023-02-03T05:05:37;103369.97;;;2.94;100.00
71638;BME280;59485;43.542;-5.676;2023-02-03T05:08:03;103372.91;;;2.90;100.00
71638;BME280;59485;43.542;-5.676;2023-02-03T05:10:28;103370.13;;;2.91;100.00
71638;BME280;59485;43.542;-5.676;2023-02-03T05:12:54;103370.25;;;2.88;100.00
71638;BME280;59485;43.542;-5.676;2023-02-03T05:15:19;103379.13;;;2.92;100.00
71638;BME280;59485;43.542;-5.676;2023-02-03T05:18:00;103369.69;;;2.82;100.00
71638;BME280;59485;43.542;-5.676;2023-02-03T05:20:25;103378.78;;;2.81;100.00
71638;BME280;59485;43.542;-5.676;2023-02-03T05:23:04;103376.31;;;2.76;100.00
71638;BME280;59485;43.542;-5.676;2023-02-03T05:25:29;103383.47;;;2.77;100.00
71638;BME280;59485;43.542;-5.676;2023-02-03T05:27:55;103384.19;;;2.81;100.00
71638;BME280;59485;43.542;-5.676;2023-02-03T05:30:20;103385.06;;;2.81;100.00
71638;BME280;59485;43.542;-5.676;2023-02-03T05:32:47;103377.41;;;2.72;100.00
71638;BME280;59485;43.542;-5.676;2023-02-03T05:35:12;103379.09;;;2.75;100.00
71638;BME280;59485;43.542;-5.676;2023-02-03T05:37:38;103378.22;;;2.74;100.00
71638;BME280;59485;43.542;-5.676;2023-02-03T05:40:12;103379.22;;;2.72;100.00
71638;BME280;59485;43.542;-5.676;2023-02-03T05:42:56;103379.47;;;2.67;100.00
71638;BME280;59485;43.542;-5.676;2023-02-03T05:45:21;103373.94;;;2.69;100.00
71638;BME280;59485;43.542;-5.676;2023-02-03T05:47:47;103372.13;;;2.69;100.00
71638;BME280;59485;43.542;-5.676;2023-02-03T05:50:12;103377.47;;;2.71;100.00
71638;BME280;59485;43.542;-5.676;2023-02-03T05:52:37;103377.41;;;2.72;100.00
71638;BME280;59485;43.542;-5.676;2023-02-03T05:55:03;103374.75;;;2.71;100.00
71638;BME280;59485;43.542;-5.676;2023-02-03T05:57:28;103367.59;;;2.70;100.00
71638;BME280;59485;43.542;-5.676;2023-02-03T05:59:54;103373.94;;;2.69;100.00
71638;BME280;59485;43.542;-5.676;2023-02-03T06:05:22;103366.13;;;2.62;100.00
71638;BME280;59485;43.542;-5.676;2023-02-03T06:07:48;103369.78;;;2.61;100.00
71638;BME280;59485;43.542;-5.676;2023-02-03T06:10:13;103367.41;;;2.55;100.00
71638;BME280;59485;43.542;-5.676;2023-02-03T06:12:39;103371.72;;;2.59;100.00
71638;BME280;59485;43.542;-5.676;2023-02-03T06:15:04;103371.06;;;2.54;100.00
71638;BME280;59485;43.542;-5.676;2023-02-03T06:17:30;103369.09;;;2.58;100.00
71638;BME280;59485;43.542;-5.676;2023-02-03T06:19:55;103376.31;;;2.57;100.00
71638;BME280;59485;43.542;-5.676;2023-02-03T06:22:21;103378.78;;;2.62;100.00
71638;BME280;59485;43.542;-5.676;2023-02-03T06:24:46;103376.16;;;2.60;100.00
71638;BME280;59485;43.542;-5.676;2023-02-03T06:27:12;103375.44;;;2.57;100.00
71638;BME280;59485;43.542;-5.676;2023-02-03T06:29:38;103370.97;;;2.56;100.00
71638;BME280;59485;43.542;-5.676;2023-02-03T06:32:03;103377.59;;;2.50;100.00
71638;BME280;59485;43.542;-5.676;2023-02-03T06:34:29;103385.53;;;2.53;100.00
71638;BME280;59485;43.542;-5.676;2023-02-03T06:36:54;103377.66;;;2.49;100.00
71638;BME280;59485;43.542;-5.676;2023-02-03T06:39:19;103383.06;;;2.49;100.00
71638;BME280;59485;43.542;-5.676;2023-02-03T06:41:45;103384.00;;;2.48;100.00
71638;BME280;59485;43.542;-5.676;2023-02-03T06:44:10;103383.63;;;2.55;100.00
71638;BME280;59485;43.542;-5.676;2023-02-03T06:46:35;103390.75;;;2.58;100.00
71638;BME280;59485;43.542;-5.676;2023-02-03T06:49:01;103390.50;;;2.62;100.00
71638;BME280;59485;43.542;-5.676;2023-02-03T06:51:32;103391.31;;;2.64;100.00
71638;BME280;59485;43.542;-5.676;2023-02-03T06:53:58;103392.13;;;2.67;100.00
71638;BME280;59485;43.542;-5.676;2023-02-03T06:56:23;103395.78;;;2.66;100.00
71638;BME280;59485;43.542;-5.676;2023-02-03T06:58:49;103394.66;;;2.70;100.00
71638;BME280;59485;43.542;-5.676;2023-02-03T07:01:14;103396.59;;;2.68;100.00
71638;BME280;59485;43.542;-5.676;2023-02-03T07:03:39;103401.25;;;2.64;100.00
71638;BME280;59485;43.542;-5.676;2023-02-03T07:06:05;103390.50;;;2.62;100.00
71638;BME280;59485;43.542;-5.676;2023-02-03T07:08:30;103397.81;;;2.60;100.00
71638;BME280;59485;43.542;-5.676;2023-02-03T07:10:56;103392.41;;;2.60;100.00
71638;BME280;59485;43.542;-5.676;2023-02-03T07:13:21;103395.41;;;2.54;100.00
71638;BME280;59485;43.542;-5.676;2023-02-03T07:15:46;103392.72;;;2.54;100.00
71638;BME280;59485;43.542;-5.676;2023-02-03T07:18:12;103397.25;;;2.54;100.00
71638;BME280;59485;43.542;-5.676;2023-02-03T07:20:37;103395.56;;;2.51;100.00
71638;BME280;59485;43.542;-5.676;2023-02-03T07:23:02;103392.72;;;2.54;100.00
71638;BME280;59485;43.542;-5.676;2023-02-03T07:25:29;103394.59;;;2.52;100.00
71638;BME280;59485;43.542;-5.676;2023-02-03T07:27:55;103387.28;;;2.54;100.00
71638;BME280;59485;43.542;-5.676;2023-02-03T07:30:20;103381.88;;;2.54;100.00
71638;BME280;59485;43.542;-5.676;2023-02-03T07:32:46;103384.44;;;2.57;100.00
71638;BME280;59485;43.542;-5.676;2023-02-03T07:35:12;103391.69;;;2.57;100.00
71638;BME280;59485;43.542;-5.676;2023-02-03T07:37:37;103383.56;;;2.57;100.00
71638;BME280;59485;43.542;-5.676;2023-02-03T07:40:02;103390.81;;;2.56;100.00
71638;BME280;59485;43.542;-5.676;2023-02-03T07:42:28;103387.72;;;2.64;100.00
71638;BME280;59485;43.542;-5.676;2023-02-03T07:44:53;103390.44;;;2.64;100.00
71638;BME280;59485;43.542;-5.676;2023-02-03T07:47:18;103395.84;;;2.64;100.00
71638;BME280;59485;43.542;-5.676;2023-02-03T07:49:44;103394.09;;;2.63;100.00
71638;BME280;59485;43.542;-5.676;2023-02-03T07:52:09;103404.13;;;2.61;100.00
71638;BME280;59485;43.542;-5.676;2023-02-03T07:54:34;103403.91;;;2.66;100.00
71638;BME280;59485;43.542;-5.676;2023-02-03T07:57:00;103402.97;;;2.67;100.00
71638;BME280;59485;43.542;-5.676;2023-02-03T07:59:25;103404.03;;;2.62;100.00
71638;BME280;59485;43.542;-5.676;2023-02-03T08:01:50;103409.25;;;2.67;100.00
71638;BME280;59485;43.542;-5.676;2023-02-03T08:04:20;103407.25;;;2.71;100.00
71638;BME280;59485;43.542;-5.676;2023-02-03T08:06:45;103400.06;;;2.70;100.00
71638;BME280;59485;43.542;-5.676;2023-02-03T08:09:10;103414.50;;;2.70;100.00
71638;BME280;59485;43.542;-5.676;2023-02-03T08:11:36;103409.56;;;2.78;100.00
71638;BME280;59485;43.542;-5.676;2023-02-03T08:14:01;103418.00;;;2.72;100.00
71638;BME280;59485;43.542;-5.676;2023-02-03T08:16:26;103415.00;;;2.78;100.00
71638;BME280;59485;43.542;-5.676;2023-02-03T08:18:52;103422.84;;;2.84;100.00
71638;BME280;59485;43.542;-5.676;2023-02-03T08:21:17;103424.44;;;2.88;100.00
71638;BME280;59485;43.542;-5.676;2023-02-03T08:23:42;103422.66;;;2.87;100.00
71638;BME280;59485;43.542;-5.676;2023-02-03T08:26:08;103427.13;;;2.88;100.00
71638;BME280;59485;43.542;-5.676;2023-02-03T08:28:33;103434.25;;;2.91;100.00
71638;BME280;59485;43.542;-5.676;2023-02-03T08:30:59;103429.31;;;2.99;100.00
71638;BME280;59485;43.542;-5.676;2023-02-03T08:33:24;103433.53;;;3.05;100.00
71638;BME280;59485;43.542;-5.676;2023-02-03T08:35:49;103434.28;;;3.08;100.00
71638;BME280;59485;43.542;-5.676;2023-02-03T08:38:15;103422.19;;;3.15;100.00
71638;BME280;59485;43.542;-5.676;2023-02-03T08:40:40;103431.84;;;3.21;100.00
71638;BME280;59485;43.542;-5.676;2023-02-03T08:43:06;103436.13;;;3.25;100.00
71638;BME280;59485;43.542;-5.676;2023-02-03T08:45:31;103435.75;;;3.32;100.00
71638;BME280;59485;43.542;-5.676;2023-02-03T08:47:57;103432.75;;;3.38;100.00
71638;BME280;59485;43.542;-5.676;2023-02-03T08:50:22;103440.78;;;3.40;100.00
71638;BME280;59485;43.542;-5.676;2023-02-03T08:52:48;103443.25;;;3.45;100.00
71638;BME280;59485;43.542;-5.676;2023-02-03T08:55:13;103446.47;;;3.53;100.00
71638;BME280;59485;43.542;-5.676;2023-02-03T08:57:39;103451.81;;;3.54;100.00
71638;BME280;59485;43.542;-5.676;2023-02-03T09:00:06;103446.94;;;3.61;100.00
71638;BME280;59485;43.542;-5.676;2023-02-03T09:02:32;103450.31;;;3.66;100.00
71638;BME280;59485;43.542;-5.676;2023-02-03T09:04:57;103449.03;;;3.73;100.00
71638;BME280;59485;43.542;-5.676;2023-02-03T09:07:23;103455.00;;;3.80;100.00
71638;BME280;59485;43.542;-5.676;2023-02-03T09:09:48;103448.47;;;3.84;100.00
71638;BME280;59485;43.542;-5.676;2023-02-03T09:12:13;103449.00;;;3.90;100.00
71638;BME280;59485;43.542;-5.676;2023-02-03T09:14:39;103445.94;;;3.96;100.00
71638;BME280;59485;43.542;-5.676;2023-02-03T09:17:05;103451.22;;;3.99;100.00
71638;BME280;59485;43.542;-5.676;2023-02-03T09:19:32;103454.47;;;4.06;100.00
71638;BME280;59485;43.542;-5.676;2023-02-03T09:21:57;103455.91;;;4.13;100.00
71638;BME280;59485;43.542;-5.676;2023-02-03T09:24:23;103456.63;;;4.17;100.00
71638;BME280;59485;43.542;-5.676;2023-02-03T09:26:48;103464.50;;;4.21;100.00
71638;BME280;59485;43.542;-5.676;2023-02-03T09:29:14;103473.03;;;4.31;100.00
71638;BME280;59485;43.542;-5.676;2023-02-03T09:31:40;103461.66;;;4.40;100.00
71638;BME280;59485;43.542;-5.676;2023-02-03T09:34:05;103466.66;;;4.47;100.00
71638;BME280;59485;43.542;-5.676;2023-02-03T09:36:31;103460.19;;;4.50;100.00
71638;BME280;59485;43.542;-5.676;2023-02-03T09:38:56;103462.69;;;4.55;100.00
71638;BME280;59485;43.542;-5.676;2023-02-03T09:46:24;103454.19;;;4.76;100.00
71638;BME280;59485;43.542;-5.676;2023-02-03T09:48:52;103451.81;;;4.86;100.00
71638;BME280;59485;43.542;-5.676;2023-02-03T09:51:21;103455.06;;;4.93;100.00
71638;BME280;59485;43.542;-5.676;2023-02-03T09:53:48;103459.97;;;5.02;100.00
71638;BME280;59485;43.542;-5.676;2023-02-03T09:56:27;103450.59;;;5.07;100.00
71638;BME280;59485;43.542;-5.676;2023-02-03T09:58:53;103450.06;;;5.16;100.00
71638;BME280;59485;43.542;-5.676;2023-02-03T10:01:19;103452.25;;;5.25;100.00
71638;BME280;59485;43.542;-5.676;2023-02-03T10:04:03;103465.38;;;5.33;100.00
71638;BME280;59485;43.542;-5.676;2023-02-03T10:09:06;103450.06;;;5.46;100.00
71638;BME280;59485;43.542;-5.676;2023-02-03T10:16:38;103462.91;;;5.74;100.00
71638;BME280;59485;43.542;-5.676;2023-02-03T10:19:12;103470.59;;;5.82;100.00
71638;BME280;59485;43.542;-5.676;2023-02-03T10:21:41;103461.81;;;5.92;100.00
71638;BME280;59485;43.542;-5.676;2023-02-03T10:24:18;103464.66;;;6.05;100.00
71638;BME280;59485;43.542;-5.676;2023-02-03T10:26:48;103461.19;;;6.17;100.00
71638;BME280;59485;43.542;-5.676;2023-02-03T10:31:42;103457.88;;;6.40;100.00
71638;BME280;59485;43.542;-5.676;2023-02-03T10:34:09;103451.94;;;6.48;100.00
71638;BME280;59485;43.542;-5.676;2023-02-03T10:41:44;103439.81;;;6.81;100.00
71638;BME280;59485;43.542;-5.676;2023-02-03T10:44:09;103436.38;;;6.91;100.00
71638;BME280;59485;43.542;-5.676;2023-02-03T10:46:38;103435.78;;;7.00;100.00
71638;BME280;59485;43.542;-5.676;2023-02-03T10:49:04;103439.66;;;7.10;100.00
71638;BME280;59485;43.542;-5.676;2023-02-03T10:51:33;103433.47;;;7.21;100.00
71638;BME280;59485;43.542;-5.676;2023-02-03T10:54:00;103432.84;;;7.30;100.00
71638;BME280;59485;43.542;-5.676;2023-02-03T10:56:26;103434.09;;;7.39;100.00
71638;BME280;59485;43.542;-5.676;2023-02-03T10:58:54;103438.81;;;7.49;100.00
71638;BME280;59485;43.542;-5.676;2023-02-03T11:01:22;103431.63;;;7.61;100.00
71638;BME280;59485;43.542;-5.676;2023-02-03T11:06:20;103433.06;;;7.79;100.00
71638;BME280;59485;43.542;-5.676;2023-02-03T11:08:46;103432.03;;;7.95;100.00
71638;BME280;59485;43.542;-5.676;2023-02-03T11:11:25;103438.13;;;7.98;100.00
71638;BME280;59485;43.542;-5.676;2023-02-03T11:13:51;103433.00;;;8.06;100.00
71638;BME280;59485;43.542;-5.676;2023-02-03T11:16:17;103433.44;;;8.13;100.00
71638;BME280;59485;43.542;-5.676;2023-02-03T11:19:02;103431.81;;;8.23;100.00
71638;BME280;59485;43.542;-5.676;2023-02-03T11:21:31;103429.84;;;8.38;100.00
71638;BME280;59485;43.542;-5.676;2023-02-03T11:26:27;103421.09;;;8.58;100.00
71638;BME280;59485;43.542;-5.676;2023-02-03T11:28:55;103418.56;;;8.68;100.00
71638;BME280;59485;43.542;-5.676;2023-02-03T11:31:42;103412.16;;;8.80;100.00
71638;BME280;59485;43.542;-5.676;2023-02-03T11:34:13;103412.34;;;9.13;100.00
71638;BME280;59485;43.542;-5.676;2023-02-03T11:36:39;103413.19;;;9.26;100.00
71638;BME280;59485;43.542;-5.676;2023-02-03T11:39:18;103401.25;;;9.27;100.00
71638;BME280;59485;43.542;-5.676;2023-02-03T11:41:45;103399.78;;;9.34;100.00
71638;BME280;59485;43.542;-5.676;2023-02-03T11:44:18;103383.41;;;9.46;100.00
71638;BME280;59485;43.542;-5.676;2023-02-03T11:46:45;103386.41;;;9.54;100.00
71638;BME280;59485;43.542;-5.676;2023-02-03T11:52:00;103392.44;;;9.70;100.00
71638;BME280;59485;43.542;-5.676;2023-02-03T11:54:43;103386.00;;;9.82;100.00
71638;BME280;59485;43.542;-5.676;2023-02-03T12:05:02;103373.06;;;10.06;100.00
71638;BME280;59485;43.542;-5.676;2023-02-03T12:12:45;103374.47;;;10.23;100.00
71638;BME280;59485;43.542;-5.676;2023-02-03T12:15:17;103364.28;;;10.25;100.00
71638;BME280;59485;43.542;-5.676;2023-02-03T12:22:45;103364.50;;;10.33;100.00
71638;BME280;59485;43.542;-5.676;2023-02-03T12:28:02;103367.63;;;10.40;100.00
71638;BME280;59485;43.542;-5.676;2023-02-03T12:30:37;103365.16;;;10.37;100.00
71638;BME280;59485;43.542;-5.676;2023-02-03T12:35:35;103364.88;;;10.40;100.00
71638;BME280;59485;43.542;-5.676;2023-02-03T12:38:09;103353.91;;;10.40;100.00
71638;BME280;59485;43.542;-5.676;2023-02-03T12:40:49;103353.91;;;10.40;100.00
71638;BME280;59485;43.542;-5.676;2023-02-03T12:48:41;103342.69;;;10.43;100.00
71638;BME280;59485;43.542;-5.676;2023-02-03T12:51:10;103336.97;;;10.46;100.00
71638;BME280;59485;43.542;-5.676;2023-02-03T12:53:38;103338.19;;;10.53;100.00
71638;BME280;59485;43.542;-5.676;2023-02-03T12:56:06;103338.19;;;10.53;100.00
71638;BME280;59485;43.542;-5.676;2023-02-03T12:58:43;103333.19;;;10.58;100.00
71638;BME280;59485;43.542;-5.676;2023-02-03T13:01:13;103336.44;;;10.63;100.00
71638;BME280;59485;43.542;-5.676;2023-02-03T13:06:18;103326.06;;;10.67;100.00
71638;BME280;59485;43.542;-5.676;2023-02-03T13:08:52;103325.69;;;10.71;100.00
71638;BME280;59485;43.542;-5.676;2023-02-03T13:11:19;103322.66;;;10.74;100.00
71638;BME280;59485;43.542;-5.676;2023-02-03T13:13:51;103319.22;;;10.72;100.00
71638;BME280;59485;43.542;-5.676;2023-02-03T13:16:24;103322.06;;;10.71;100.00
71638;BME280;59485;43.542;-5.676;2023-02-03T13:18:54;103317.19;;;10.74;100.00
71638;BME280;59485;43.542;-5.676;2023-02-03T13:21:22;103316.19;;;10.75;100.00
71638;BME280;59485;43.542;-5.676;2023-02-03T13:23:47;103316.81;;;10.79;100.00
71638;BME280;59485;43.542;-5.676;2023-02-03T13:31:36;103319.91;;;10.85;100.00
71638;BME280;59485;43.542;-5.676;2023-02-03T13:44:15;103306.28;;;10.95;100.00
71638;BME280;59485;43.542;-5.676;2023-02-03T13:46:44;103311.50;;;10.98;100.00
71638;BME280;59485;43.542;-5.676;2023-02-03T13:49:16;103306.16;;;10.97;100.00
71638;BME280;59485;43.542;-5.676;2023-02-03T13:51:43;103306.63;;;11.02;100.00
71638;BME280;59485;43.542;-5.676;2023-02-03T13:54:15;103310.09;;;11.04;100.00
71638;BME280;59485;43.542;-5.676;2023-02-03T13:56:51;103311.47;;;11.09;100.00
71638;BME280;59485;43.542;-5.676;2023-02-03T14:12:34;103297.28;;;11.25;100.00
71638;BME280;59485;43.542;-5.676;2023-02-03T14:15:00;103288.69;;;11.18;100.00
71638;BME280;59485;43.542;-5.676;2023-02-03T14:20:01;103287.63;;;11.31;100.00
71638;BME280;59485;43.542;-5.676;2023-02-03T14:22:26;103285.63;;;11.33;100.00
71638;BME280;59485;43.542;-5.676;2023-02-03T14:24:53;103283.22;;;11.39;100.00
71638;BME280;59485;43.542;-5.676;2023-02-03T14:27:21;103283.50;;;11.36;100.00
71638;BME280;59485;43.542;-5.676;2023-02-03T14:35:16;103292.88;;;11.34;100.00
71638;BME280;59485;43.542;-5.676;2023-02-03T14:37:49;103282.22;;;11.40;100.00
71638;BME280;59485;43.542;-5.676;2023-02-03T15:00:42;103268.22;;;11.74;100.00
71638;BME280;59485;43.542;-5.676;2023-02-03T15:07:59;103276.59;;;11.93;100.00
71638;BME280;59485;43.542;-5.676;2023-02-03T15:10:39;103269.53;;;12.00;100.00
71638;BME280;59485;43.542;-5.676;2023-02-03T15:13:21;103268.88;;;12.08;100.00
71638;BME280;59485;43.542;-5.676;2023-02-03T15:15:47;103275.38;;;12.07;100.00
71638;BME280;59485;43.542;-5.676;2023-02-03T15:18:20;103273.94;;;12.12;100.00
71638;BME280;59485;43.542;-5.676;2023-02-03T15:20:46;103280.19;;;12.14;100.00
71638;BME280;59485;43.542;-5.676;2023-02-03T15:25:41;103297.13;;;12.19;100.00
71638;BME280;59485;43.542;-5.676;2023-02-03T15:28:13;103300.50;;;12.32;100.00
71638;BME280;59485;43.542;-5.676;2023-02-03T15:30:43;103297.94;;;12.50;100.00